Time;durP1;ratioP1;P1;durP2;ratioP2;P2;SDS_P1;SDS_P2;PMS_P1;PMS_P2;Temp;Humidity;BMP_temperature;BMP_pressure;BME280_temperature;BME280_humidity;BME280_pressure;Samples;Min_cycle;Max_cycle;Signal;HPM_P1;HPM_P2
2022/03/30 00:00:13;;;;;;;28.33;11.40;;;5.20;99.90;;;;;;5031208;28;20107;-71
2022/03/30 00:02:39;;;;;;;24.90;11.27;;;5.20;99.90;;;;;;5032334;28;20052;-71
2022/03/30 00:05:05;;;;;;;25.55;11.48;;;5.20;99.90;;;;;;5029155;28;20057;-71
2022/03/30 00:07:32;;;;;;;23.42;12.30;;;5.20;99.90;;;;;;5028674;28;20085;-71
2022/03/30 00:10:03;;;;;;;28.08;12.38;;;4.90;99.90;;;;;;5032304;28;20056;-71
2022/03/30 00:12:30;;;;;;;29.52;12.20;;;5.10;99.90;;;;;;5031072;28;20541;-71
2022/03/30 00:14:57;;;;;;;26.65;11.68;;;5.10;99.90;;;;;;5023056;28;20061;-71
2022/03/30 00:17:23;;;;;;;28.38;12.45;;;5.00;99.90;;;;;;5033409;28;20049;-71
2022/03/30 00:19:49;;;;;;;25.27;11.63;;;5.00;99.90;;;;;;5038416;28;20859;-71
2022/03/30 00:22:15;;;;;;;23.85;11.40;;;5.00;99.90;;;;;;5034338;28;20117;-71
2022/03/30 00:24:43;;;;;;;26.63;11.02;;;4.90;99.90;;;;;;5029181;28;20781;-71
2022/03/30 00:27:09;;;;;;;30.13;11.65;;;4.90;99.90;;;;;;5028624;28;20106;-71
2022/03/30 00:29:35;;;;;;;25.15;11.93;;;4.90;99.90;;;;;;5036021;28;20405;-71
2022/03/30 00:32:01;;;;;;;29.25;11.35;;;4.80;99.90;;;;;;5033291;28;20044;-71
2022/03/30 00:34:26;;;;;;;29.25;13.18;;;4.80;99.90;;;;;;5033567;28;20052;-71
2022/03/30 00:36:52;;;;;;;26.60;11.40;;;4.80;99.90;;;;;;5035456;28;20037;-71
2022/03/30 00:39:18;;;;;;;24.45;12.30;;;4.80;99.90;;;;;;5032723;28;20067;-71
2022/03/30 00:41:44;;;;;;;27.58;11.73;;;4.70;99.90;;;;;;5025743;28;20077;-71
2022/03/30 00:44:11;;;;;;;31.13;12.98;;;4.80;99.90;;;;;;5026385;28;20103;-72
2022/03/30 00:46:38;;;;;;;24.80;12.07;;;4.70;99.90;;;;;;5035462;28;20250;-71
2022/03/30 00:49:05;;;;;;;23.52;11.95;;;4.70;99.90;;;;;;5030851;28;20052;-71
2022/03/30 00:51:31;;;;;;;26.98;12.23;;;5.20;99.90;;;;;;5036049;28;20093;-72
2022/03/30 00:53:57;;;;;;;25.48;12.52;;;4.70;99.90;;;;;;5026072;28;20066;-72
2022/03/30 00:56:24;;;;;;;29.98;12.43;;;4.60;99.90;;;;;;5034215;28;20061;-72
2022/03/30 00:58:50;;;;;;;24.42;11.77;;;4.60;99.90;;;;;;5033917;28;20049;-72
2022/03/30 01:01:16;;;;;;;29.58;13.27;;;4.60;99.90;;;;;;5031552;28;20060;-72
2022/03/30 01:03:41;;;;;;;22.40;10.98;;;4.70;99.90;;;;;;5030565;28;20080;-72
2022/03/30 01:06:07;;;;;;;26.25;13.20;;;4.70;99.90;;;;;;5029564;28;20057;-72
2022/03/30 01:08:33;;;;;;;25.77;12.73;;;4.70;99.90;;;;;;5034945;28;20045;-72
2022/03/30 01:11:00;;;;;;;31.00;13.32;;;4.80;99.90;;;;;;5031750;28;20103;-72
2022/03/30 01:13:26;;;;;;;27.50;12.52;;;4.80;99.90;;;;;;5025440;28;20046;-72
2022/03/30 01:15:52;;;;;;;24.63;13.25;;;4.80;99.90;;;;;;5030878;28;20041;-72
2022/03/30 01:18:18;;;;;;;29.52;13.95;;;5.00;99.90;;;;;;5036365;28;20081;-72
2022/03/30 01:20:50;;;;;;;37.97;15.70;;;4.80;99.90;;;;;;5029915;28;20091;-72
2022/03/30 01:23:16;;;;;;;29.85;13.32;;;4.90;99.90;;;;;;5030089;28;20057;-72
2022/03/30 01:25:42;;;;;;;30.55;13.60;;;5.20;99.90;;;;;;5030201;28;20040;-72
2022/03/30 01:28:08;;;;;;;28.88;13.55;;;5.00;99.90;;;;;;5019301;28;20473;-72
2022/03/30 01:33:18;;;;;;;29.13;13.63;;;5.00;99.90;;;;;;5031326;28;20057;-72
2022/03/30 01:35:43;;;;;;;30.23;13.68;;;5.00;99.90;;;;;;5031307;28;20050;-72
2022/03/30 01:38:09;;;;;;;28.58;12.88;;;5.10;99.90;;;;;;5030398;28;20041;-72
2022/03/30 01:40:35;;;;;;;32.13;14.82;;;5.10;99.90;;;;;;5026776;28;20561;-72
2022/03/30 01:43:02;;;;;;;31.48;13.20;;;5.10;99.90;;;;;;5021735;28;20049;-72
2022/03/30 01:45:27;;;;;;;30.27;14.05;;;5.10;99.90;;;;;;5025545;28;20041;-72
2022/03/30 01:47:57;;;;;;;29.15;14.40;;;5.20;99.90;;;;;;5032355;28;20041;-72
2022/03/30 01:50:23;;;;;;;30.05;12.38;;;5.20;99.90;;;;;;5028278;28;20068;-72
2022/03/30 01:52:49;;;;;;;28.55;13.00;;;5.30;99.90;;;;;;5034722;28;20053;-72
2022/03/30 01:55:15;;;;;;;34.17;13.90;;;5.30;99.90;;;;;;5030976;28;20049;-72
2022/03/30 01:57:41;;;;;;;29.65;13.57;;;5.30;99.90;;;;;;5030294;28;20041;-72
2022/03/30 02:00:08;;;;;;;28.33;12.50;;;5.30;99.90;;;;;;5023370;28;20770;-72
2022/03/30 02:02:33;;;;;;;32.80;13.68;;;5.30;99.90;;;;;;5032658;28;20053;-71
2022/03/30 02:05:03;;;;;;;30.95;13.00;;;5.40;99.90;;;;;;5031817;28;20095;-72
2022/03/30 02:07:29;;;;;;;28.02;13.70;;;5.30;99.90;;;;;;5026807;28;20806;-72
2022/03/30 02:09:54;;;;;;;31.55;13.73;;;5.40;99.90;;;;;;5036153;28;20047;-72
2022/03/30 02:12:20;;;;;;;31.45;13.70;;;5.40;99.90;;;;;;5036262;28;20034;-71
2022/03/30 02:14:47;;;;;;;24.55;12.63;;;5.40;99.90;;;;;;5027953;28;20583;-72
2022/03/30 02:17:13;;;;;;;31.63;13.05;;;5.40;99.90;;;;;;5025291;28;20167;-72
2022/03/30 02:19:38;;;;;;;31.25;13.57;;;5.50;99.90;;;;;;5022289;28;20053;-72
2022/03/30 02:22:04;;;;;;;26.52;13.95;;;5.50;99.90;;;;;;5029665;28;20713;-72
2022/03/30 02:24:30;;;;;;;22.00;11.50;;;5.50;99.90;;;;;;5036032;28;20176;-72
2022/03/30 02:26:55;;;;;;;26.60;13.18;;;5.50;99.90;;;;;;5033621;28;20048;-72
2022/03/30 02:29:21;;;;;;;27.05;12.80;;;5.10;99.90;;;;;;5030422;28;20142;-72
2022/03/30 02:31:47;;;;;;;27.20;13.70;;;5.50;99.90;;;;;;5036996;28;20128;-72
2022/03/30 02:34:13;;;;;;;25.23;11.90;;;5.60;99.90;;;;;;5031033;28;20595;-72
2022/03/30 02:36:40;;;;;;;23.77;12.68;;;5.60;99.90;;;;;;5037263;28;20045;-72
2022/03/30 02:39:06;;;;;;;30.63;13.98;;;5.90;99.90;;;;;;5030500;28;20057;-72
2022/03/30 02:41:32;;;;;;;26.55;13.20;;;5.70;99.90;;;;;;5031389;28;20115;-72
2022/03/30 02:43:57;;;;;;;24.48;13.15;;;5.70;99.90;;;;;;5027206;28;20219;-72
2022/03/30 02:46:23;;;;;;;30.02;14.38;;;5.60;99.90;;;;;;5026203;28;20057;-72
2022/03/30 02:48:48;;;;;;;28.40;13.68;;;5.60;99.90;;;;;;5038163;28;20550;-72
2022/03/30 02:51:14;;;;;;;25.42;11.82;;;5.60;99.90;;;;;;5039746;28;20045;-72
2022/03/30 02:53:40;;;;;;;32.83;12.65;;;5.60;99.90;;;;;;5035714;28;20100;-72
2022/03/30 02:56:05;;;;;;;25.65;12.75;;;5.60;99.90;;;;;;5031962;28;20144;-72
2022/03/30 02:58:32;;;;;;;28.33;12.10;;;5.60;99.90;;;;;;5036739;28;20427;-72
2022/03/30 03:00:58;;;;;;;27.40;11.35;;;5.60;99.90;;;;;;5036039;28;20107;-72
2022/03/30 03:03:24;;;;;;;20.83;11.15;;;5.70;99.90;;;;;;5026959;28;20659;-72
2022/03/30 03:05:50;;;;;;;30.70;13.23;;;5.70;99.90;;;;;;5036361;28;20106;-72
2022/03/30 03:08:16;;;;;;;24.08;11.48;;;5.70;99.90;;;;;;5035076;28;20131;-72
2022/03/30 03:10:44;;;;;;;28.05;12.30;;;5.70;99.90;;;;;;5032651;28;20052;-72
2022/03/30 03:13:11;;;;;;;28.13;11.25;;;5.70;99.90;;;;;;5034507;28;20049;-72
2022/03/30 03:15:37;;;;;;;23.52;11.52;;;5.70;99.90;;;;;;5034995;28;20053;-72
2022/03/30 03:18:04;;;;;;;25.33;11.57;;;5.70;99.90;;;;;;5033459;28;20053;-72
2022/03/30 03:20:31;;;;;;;26.80;12.23;;;5.70;99.90;;;;;;5035967;28;20423;-72
2022/03/30 03:22:58;;;;;;;24.65;11.38;;;5.80;99.90;;;;;;5024199;28;20049;-72
2022/03/30 03:25:24;;;;;;;28.40;12.93;;;5.80;99.90;;;;;;5025067;28;20057;-72
2022/03/30 03:27:52;;;;;;;23.13;11.50;;;5.80;99.90;;;;;;5025672;28;20139;-72
2022/03/30 03:30:18;;;;;;;30.33;12.75;;;5.80;99.90;;;;;;5026686;28;20064;-72
2022/03/30 03:32:43;;;;;;;27.50;12.32;;;5.80;99.90;;;;;;5037551;28;20049;-72
2022/03/30 03:35:09;;;;;;;29.55;11.73;;;5.80;99.90;;;;;;5033749;28;20044;-72
2022/03/30 03:37:39;;;;;;;29.70;11.30;;;5.80;99.90;;;;;;5034658;28;20125;-72
2022/03/30 03:40:06;;;;;;;29.35;11.90;;;5.80;99.90;;;;;;5035549;28;20087;-71
2022/03/30 03:42:33;;;;;;;23.52;10.77;;;5.80;99.90;;;;;;5021410;28;20045;-72
2022/03/30 03:44:58;;;;;;;28.10;12.23;;;5.80;99.90;;;;;;5030658;28;20086;-72
2022/03/30 03:47:24;;;;;;;28.33;11.88;;;5.80;99.90;;;;;;5028684;28;20041;-72
2022/03/30 03:49:50;;;;;;;23.52;10.93;;;5.80;99.90;;;;;;5028618;28;20053;-72
2022/03/30 03:52:15;;;;;;;24.60;11.25;;;5.80;99.90;;;;;;5036030;28;20155;-72
2022/03/30 03:54:41;;;;;;;29.73;11.68;;;5.80;99.90;;;;;;5036427;28;20144;-72
2022/03/30 03:57:08;;;;;;;34.00;12.27;;;5.80;99.90;;;;;;5034017;28;20056;-72
2022/03/30 03:59:33;;;;;;;29.10;11.75;;;5.80;99.90;;;;;;5034779;28;20476;-72
2022/03/30 04:01:59;;;;;;;25.08;10.40;;;5.80;99.90;;;;;;5028883;28;20111;-72
2022/03/30 04:04:26;;;;;;;24.23;9.25;;;5.80;99.90;;;;;;5033539;28;20049;-72
2022/03/30 04:06:51;;;;;;;18.67;8.60;;;5.90;99.90;;;;;;5032242;28;20678;-72
2022/03/30 04:09:18;;;;;;;12.23;6.00;;;5.90;99.90;;;;;;5027142;28;20057;-72
2022/03/30 04:11:44;;;;;;;8.63;3.45;;;5.90;99.90;;;;;;5029868;28;20041;-72
2022/03/30 04:14:09;;;;;;;9.30;2.67;;;5.90;99.90;;;;;;5033993;28;20575;-72
2022/03/30 04:16:37;;;;;;;8.27;3.78;;;5.90;99.90;;;;;;5027891;28;20073;-72
2022/03/30 04:19:02;;;;;;;4.68;1.80;;;5.90;99.90;;;;;;5036421;28;20044;-72
2022/03/30 04:21:28;;;;;;;9.25;1.73;;;5.90;99.90;;;;;;5032553;28;20049;-72
2022/03/30 04:23:53;;;;;;;5.30;1.40;;;6.00;99.90;;;;;;5033805;28;20049;-72
2022/03/30 04:26:19;;;;;;;3.65;1.50;;;6.00;99.90;;;;;;5026318;28;20037;-72
2022/03/30 04:28:44;;;;;;;3.33;1.58;;;6.10;99.90;;;;;;5026083;28;20052;-72
2022/03/30 04:31:11;;;;;;;6.30;1.92;;;6.00;99.90;;;;;;5027339;28;20037;-72
2022/03/30 04:33:40;;;;;;;7.43;1.65;;;5.90;99.90;;;;;;5032577;28;20049;-72
2022/03/30 04:36:06;;;;;;;3.22;1.02;;;5.90;99.90;;;;;;5034603;28;20055;-72
2022/03/30 04:38:33;;;;;;;3.83;1.95;;;6.20;99.90;;;;;;5031320;28;20049;-72
2022/03/30 04:40:59;;;;;;;1.98;0.45;;;5.90;99.90;;;;;;5018212;28;20048;-72
2022/03/30 04:43:25;;;;;;;1.88;0.80;;;5.90;99.90;;;;;;5030792;28;20481;-72
2022/03/30 04:45:50;;;;;;;1.20;0.50;;;6.00;99.90;;;;;;5026422;28;20057;-72
2022/03/30 04:48:16;;;;;;;4.82;1.48;;;5.90;99.90;;;;;;5030751;28;20041;-72
2022/03/30 04:50:42;;;;;;;2.90;1.13;;;5.80;99.90;;;;;;5037212;28;20040;-72
2022/03/30 04:53:07;;;;;;;2.67;0.82;;;5.90;99.90;;;;;;5033313;28;20065;-72
2022/03/30 04:55:33;;;;;;;1.55;0.60;;;5.80;99.90;;;;;;5032959;28;20163;-72
2022/03/30 04:57:59;;;;;;;1.55;0.40;;;5.80;99.90;;;;;;5035261;28;20813;-72
2022/03/30 05:00:25;;;;;;;1.95;0.55;;;5.70;99.90;;;;;;5031866;28;20056;-72
2022/03/30 05:02:50;;;;;;;1.73;0.60;;;5.70;99.90;;;;;;5023013;28;20816;-72
2022/03/30 05:05:17;;;;;;;1.80;0.35;;;5.70;99.90;;;;;;5033983;28;20677;-72
2022/03/30 05:07:42;;;;;;;2.92;0.93;;;5.60;99.90;;;;;;5033666;28;20049;-72
2022/03/30 05:10:13;;;;;;;2.45;0.88;;;5.60;99.90;;;;;;5033434;28;20605;-71
2022/03/30 05:12:40;;;;;;;2.30;0.70;;;5.60;99.90;;;;;;5028951;28;20080;-72
2022/03/30 05:15:06;;;;;;;4.30;1.45;;;5.60;99.90;;;;;;5033062;28;20133;-71
2022/03/30 05:17:32;;;;;;;2.33;0.70;;;5.60;99.90;;;;;;5025271;28;20123;-72
2022/03/30 05:19:59;;;;;;;1.73;0.55;;;5.60;99.90;;;;;;5035294;28;20810;-72
2022/03/30 05:22:25;;;;;;;2.80;1.17;;;5.50;99.90;;;;;;5028866;28;20611;-71
2022/03/30 05:24:50;;;;;;;1.50;0.70;;;5.50;99.90;;;;;;5034111;28;20118;-72
2022/03/30 05:27:16;;;;;;;1.42;0.60;;;5.50;99.90;;;;;;5032848;28;20040;-71
2022/03/30 05:29:42;;;;;;;3.33;0.90;;;5.40;99.90;;;;;;5026514;28;20985;-71
2022/03/30 05:32:08;;;;;;;3.65;0.70;;;5.40;99.90;;;;;;5033561;28;20056;-71
2022/03/30 05:34:35;;;;;;;2.22;0.80;;;5.40;99.90;;;;;;5031946;28;20893;-72
2022/03/30 05:37:00;;;;;;;2.38;0.77;;;5.30;99.90;;;;;;5033124;28;20048;-71
2022/03/30 05:39:26;;;;;;;1.38;0.70;;;5.30;99.90;;;;;;5028372;28;20048;-72
2022/03/30 05:41:54;;;;;;;2.85;0.70;;;5.40;99.90;;;;;;5019974;28;20572;-71
2022/03/30 05:44:20;;;;;;;2.60;0.60;;;5.40;99.90;;;;;;5016952;28;20084;-71
2022/03/30 05:46:46;;;;;;;2.00;0.60;;;5.40;99.90;;;;;;5028810;28;20033;-74
2022/03/30 05:49:11;;;;;;;2.42;0.63;;;5.40;99.90;;;;;;5023686;28;20077;-71
2022/03/30 05:51:37;;;;;;;4.70;0.80;;;5.40;99.90;;;;;;5034188;28;20243;-72
2022/03/30 05:54:03;;;;;;;3.42;0.63;;;5.40;99.90;;;;;;5030362;28;20606;-72
2022/03/30 05:59:15;;;;;;;3.15;0.90;;;5.50;99.90;;;;;;5029104;28;20690;-71
2022/03/30 06:01:41;;;;;;;2.88;0.80;;;5.40;99.90;;;;;;5019738;28;20152;-72
2022/03/30 06:04:07;;;;;;;2.72;1.10;;;5.50;99.90;;;;;;5027310;28;20053;-73
2022/03/30 06:06:33;;;;;;;2.25;0.77;;;5.40;99.90;;;;;;5027326;28;20041;-72
2022/03/30 06:08:59;;;;;;;2.88;1.00;;;5.40;99.90;;;;;;5032660;28;20053;-72
2022/03/30 06:11:25;;;;;;;2.50;0.80;;;5.40;99.90;;;;;;5032976;28;20863;-72
2022/03/30 06:13:50;;;;;;;2.83;1.10;;;5.40;99.90;;;;;;5027232;28;20049;-74
2022/03/30 06:16:16;;;;;;;3.03;0.90;;;5.40;99.90;;;;;;5028391;28;20681;-73
2022/03/30 06:18:46;;;;;;;2.50;0.70;;;5.40;99.90;;;;;;5030405;28;20145;-74
2022/03/30 06:21:12;;;;;;;3.00;1.02;;;5.40;99.90;;;;;;5032616;28;20076;-75
2022/03/30 06:23:38;;;;;;;3.45;1.15;;;5.40;99.90;;;;;;5027877;28;20041;-73
2022/03/30 06:26:05;;;;;;;6.03;1.10;;;5.40;99.90;;;;;;5030367;28;20041;-74
2022/03/30 06:28:30;;;;;;;4.25;1.10;;;5.40;99.90;;;;;;5037254;28;20064;-77
2022/03/30 06:30:56;;;;;;;2.72;1.23;;;5.50;99.90;;;;;;5038027;28;20072;-77
2022/03/30 06:33:22;;;;;;;4.15;1.10;;;5.50;99.90;;;;;;5036030;28;20492;-74
2022/03/30 06:35:48;;;;;;;4.75;1.10;;;5.60;99.90;;;;;;5033986;28;20047;-74
2022/03/30 06:38:13;;;;;;;3.80;1.20;;;5.60;99.90;;;;;;5032390;28;20049;-72
2022/03/30 06:40:39;;;;;;;2.13;0.80;;;5.60;99.90;;;;;;5033126;28;20080;-74
2022/03/30 06:43:05;;;;;;;5.57;1.20;;;5.70;99.90;;;;;;5028313;28;20041;-74
2022/03/30 06:45:31;;;;;;;8.43;1.40;;;5.80;99.90;;;;;;5034143;28;20049;-74
2022/03/30 06:47:56;;;;;;;3.17;0.98;;;5.80;99.90;;;;;;5029078;28;20050;-74
2022/03/30 06:50:22;;;;;;;2.55;0.90;;;5.90;99.90;;;;;;5033502;28;20044;-74
2022/03/30 06:52:48;;;;;;;4.90;1.13;;;5.90;99.90;;;;;;5037816;28;20088;-74
2022/03/30 06:55:14;;;;;;;4.50;1.02;;;5.90;99.90;;;;;;5022689;28;20053;-74
2022/03/30 06:57:43;;;;;;;4.43;1.00;;;6.00;99.90;;;;;;5032768;28;20045;-74
2022/03/30 07:00:13;;;;;;;4.80;1.10;;;6.00;99.90;;;;;;5031219;28;20568;-73
2022/03/30 07:02:39;;;;;;;4.35;1.20;;;6.00;99.90;;;;;;5034881;28;20082;-74
2022/03/30 07:05:05;;;;;;;2.58;0.93;;;6.00;99.90;;;;;;5036682;28;20575;-74
2022/03/30 07:10:18;;;;;;;6.78;1.65;;;6.10;99.90;;;;;;5030530;28;20167;-74
2022/03/30 07:12:45;;;;;;;4.47;1.30;;;6.20;99.90;;;;;;5029991;28;20787;-73
2022/03/30 07:15:11;;;;;;;6.55;1.13;;;6.20;99.90;;;;;;5030234;28;20159;-74
2022/03/30 07:17:50;;;;;;;3.70;1.20;;;6.20;99.90;;;;;;5023930;28;20054;-74
2022/03/30 07:20:18;;;;;;;7.45;1.25;;;6.30;99.90;;;;;;5034466;28;20778;-74
2022/03/30 07:22:44;;;;;;;4.63;1.20;;;6.40;99.90;;;;;;5037301;28;20065;-74
2022/03/30 07:25:11;;;;;;;5.20;1.10;;;6.50;99.90;;;;;;5031257;28;20046;-74
2022/03/30 07:27:41;;;;;;;4.85;1.05;;;6.60;99.90;;;;;;5036167;28;20056;-74
2022/03/30 07:30:08;;;;;;;5.30;1.33;;;6.60;99.90;;;;;;5029529;28;20159;-74
2022/03/30 07:32:35;;;;;;;3.58;1.48;;;6.60;99.90;;;;;;5031308;28;20044;-74
2022/03/30 07:35:01;;;;;;;5.03;1.23;;;6.60;99.90;;;;;;5035727;28;20045;-74
2022/03/30 07:37:27;;;;;;;3.20;1.30;;;6.70;99.90;;;;;;5035701;28;20037;-74
2022/03/30 07:39:53;;;;;;;5.60;1.52;;;6.70;99.90;;;;;;5035437;28;20118;-74
2022/03/30 07:42:18;;;;;;;5.15;1.83;;;6.70;99.90;;;;;;5031548;28;20077;-74
2022/03/30 07:44:44;;;;;;;6.18;2.17;;;6.80;99.90;;;;;;5038294;28;20053;-74
2022/03/30 07:47:09;;;;;;;7.40;2.40;;;6.80;99.90;;;;;;5028411;28;20049;-74
2022/03/30 07:49:35;;;;;;;5.35;1.92;;;6.90;99.90;;;;;;5031167;28;20053;-74
2022/03/30 07:52:03;;;;;;;7.25;1.50;;;6.90;99.90;;;;;;5032736;28;20548;-74
2022/03/30 07:54:29;;;;;;;6.53;2.40;;;7.00;99.90;;;;;;5036316;28;20144;-74
2022/03/30 07:56:55;;;;;;;5.90;1.83;;;7.00;99.90;;;;;;5034388;28;20049;-74
2022/03/30 07:59:20;;;;;;;4.85;2.10;;;7.00;99.90;;;;;;5028418;28;20059;-74
2022/03/30 08:01:46;;;;;;;4.80;1.80;;;7.00;99.90;;;;;;5033904;28;20049;-74
2022/03/30 08:04:12;;;;;;;6.20;1.90;;;7.10;99.90;;;;;;5029746;28;20614;-74
2022/03/30 08:06:38;;;;;;;6.25;2.45;;;7.10;99.90;;;;;;5036124;28;20081;-77
2022/03/30 08:09:04;;;;;;;7.57;2.22;;;7.10;99.90;;;;;;5023051;28;20053;-74
2022/03/30 08:11:30;;;;;;;7.90;2.63;;;7.10;99.90;;;;;;5032430;28;20158;-73
2022/03/30 08:13:56;;;;;;;5.93;3.00;;;7.20;99.90;;;;;;5036206;28;20048;-74
2022/03/30 08:16:22;;;;;;;7.38;3.50;;;7.30;99.90;;;;;;5018328;28;20378;-74
2022/03/30 08:18:48;;;;;;;7.65;3.50;;;7.40;99.90;;;;;;5019310;28;20064;-74
2022/03/30 08:23:58;;;;;;;6.80;2.80;;;7.40;99.90;;;;;;5040431;28;20057;-74
2022/03/30 08:26:24;;;;;;;5.25;2.15;;;7.50;99.90;;;;;;5038711;28;20049;-74
2022/03/30 08:28:50;;;;;;;6.45;1.70;;;7.50;99.90;;;;;;5031733;28;20049;-74
2022/03/30 08:31:16;;;;;;;3.17;1.33;;;7.50;99.90;;;;;;5019999;28;20049;-74
2022/03/30 08:33:41;;;;;;;3.75;0.93;;;7.50;99.90;;;;;;5020983;28;20045;-74
2022/03/30 08:36:07;;;;;;;5.68;1.25;;;7.50;99.90;;;;;;5029147;28;20601;-74
2022/03/30 08:38:33;;;;;;;5.05;1.08;;;7.60;99.90;;;;;;5039803;28;20049;-74
2022/03/30 08:40:59;;;;;;;4.20;1.00;;;7.60;99.90;;;;;;5034420;28;20058;-74
2022/03/30 08:43:26;;;;;;;6.78;1.30;;;7.50;99.90;;;;;;5026926;28;20045;-74
2022/03/30 08:45:55;;;;;;;4.78;1.17;;;7.50;99.90;;;;;;5020329;28;20156;-74
2022/03/30 08:48:21;;;;;;;7.05;0.85;;;7.50;99.90;;;;;;5018311;28;20049;-74
2022/03/30 08:50:48;;;;;;;6.15;0.93;;;7.30;99.90;;;;;;5031287;28;20816;-74
2022/03/30 08:53:16;;;;;;;3.60;1.13;;;7.20;99.90;;;;;;5039235;28;20061;-74
2022/03/30 08:55:42;;;;;;;4.53;0.80;;;7.20;99.90;;;;;;5027409;28;20053;-72
2022/03/30 08:58:08;;;;;;;2.40;0.70;;;7.10;99.90;;;;;;5026310;28;20056;-74
2022/03/30 09:00:34;;;;;;;4.97;0.80;;;7.10;99.90;;;;;;5034636;28;20220;-73
2022/03/30 09:03:01;;;;;;;3.70;0.80;;;7.20;99.90;;;;;;5030222;28;20159;-73
2022/03/30 09:05:29;;;;;;;3.83;0.90;;;7.20;99.90;;;;;;5026961;28;20531;-73
2022/03/30 09:08:13;;;;;;;3.65;0.85;;;7.30;99.90;;;;;;5032462;28;20504;-73
2022/03/30 09:10:44;;;;;;;4.60;1.10;;;7.40;99.90;;;;;;5032890;28;20770;-72
2022/03/30 09:13:11;;;;;;;4.40;0.93;;;7.50;99.90;;;;;;5022684;28;20058;-73
2022/03/30 09:15:38;;;;;;;4.35;1.13;;;7.60;99.90;;;;;;5023064;28;20059;-73
2022/03/30 09:18:06;;;;;;;2.65;0.80;;;7.60;99.90;;;;;;5018695;28;20053;-72
2022/03/30 09:20:32;;;;;;;3.53;0.70;;;7.60;99.90;;;;;;5026042;28;20553;-72
2022/03/30 09:23:00;;;;;;;2.05;0.55;;;7.70;99.90;;;;;;5036947;28;20049;-72
2022/03/30 09:25:27;;;;;;;3.13;1.00;;;7.70;99.90;;;;;;5030411;28;20053;-72
2022/03/30 09:27:55;;;;;;;3.38;0.80;;;7.70;99.90;;;;;;5037562;28;20044;-73
2022/03/30 09:30:21;;;;;;;5.20;0.70;;;7.70;99.90;;;;;;5035059;28;20049;-74
2022/03/30 09:32:52;;;;;;;5.75;0.70;;;7.80;99.90;;;;;;5035953;28;20173;-72
2022/03/30 09:35:37;;;;;;;1.92;0.70;;;7.80;99.90;;;;;;5026638;28;20850;-73
2022/03/30 09:38:13;;;;;;;2.95;0.93;;;7.80;99.90;;;;;;5028467;28;20037;-74
2022/03/30 09:41:01;;;;;;;3.72;0.80;;;7.90;99.90;;;;;;5027342;28;20052;-73
2022/03/30 09:43:34;;;;;;;4.90;0.70;;;8.00;99.90;;;;;;5034191;28;20114;-73
2022/03/30 09:46:03;;;;;;;2.20;0.60;;;8.20;99.90;;;;;;5031723;28;20483;-74
2022/03/30 09:48:30;;;;;;;6.50;0.70;;;8.20;99.90;;;;;;5030391;28;20832;-73
2022/03/30 09:50:58;;;;;;;3.17;0.70;;;8.30;99.90;;;;;;5029391;28;20057;-74
2022/03/30 09:53:27;;;;;;;2.55;0.60;;;8.30;99.90;;;;;;5028174;28;20152;-73
2022/03/30 09:56:06;;;;;;;4.88;0.98;;;8.40;99.90;;;;;;5030119;28;20053;-77
2022/03/30 09:58:36;;;;;;;5.78;1.13;;;8.40;99.90;;;;;;5031120;28;20068;-73
2022/03/30 10:01:08;;;;;;;3.47;1.30;;;8.50;99.90;;;;;;5033322;28;20056;-75
2022/03/30 10:03:42;;;;;;;4.88;0.80;;;8.60;99.90;;;;;;5037855;28;20590;-75
2022/03/30 10:06:09;;;;;;;3.78;1.10;;;8.60;99.90;;;;;;5039205;28;20152;-75
2022/03/30 10:08:35;;;;;;;5.93;1.42;;;8.60;99.90;;;;;;5037217;28;20594;-75
2022/03/30 10:11:01;;;;;;;7.03;1.10;;;8.60;99.90;;;;;;5036826;28;20072;-75
2022/03/30 10:13:28;;;;;;;5.30;1.10;;;8.50;99.90;;;;;;5037173;28;20110;-72
2022/03/30 10:15:53;;;;;;;3.72;1.00;;;8.50;99.90;;;;;;5035816;28;20892;-76
2022/03/30 10:18:19;;;;;;;4.45;1.23;;;8.50;99.90;;;;;;5038469;28;20052;-75
2022/03/30 10:20:49;;;;;;;3.83;1.08;;;8.40;99.90;;;;;;5036813;28;20052;-75
2022/03/30 10:23:37;;;;;;;4.25;1.20;;;8.40;99.90;;;;;;5037324;28;20076;-75
2022/03/30 10:26:15;;;;;;;6.47;1.20;;;8.40;99.90;;;;;;5036291;28;20052;-75
2022/03/30 10:28:41;;;;;;;5.18;1.20;;;8.50;99.90;;;;;;5038480;28;20095;-75
2022/03/30 10:31:07;;;;;;;6.07;1.10;;;8.50;99.90;;;;;;5037531;28;20156;-75
2022/03/30 10:33:36;;;;;;;3.83;1.10;;;8.50;99.90;;;;;;5041440;28;20135;-76
2022/03/30 10:36:27;;;;;;;3.75;1.23;;;8.60;99.90;;;;;;5041744;28;20045;-76
2022/03/30 10:39:14;;;;;;;3.22;1.30;;;8.70;99.90;;;;;;5027175;28;20064;-76
2022/03/30 10:42:09;;;;;;;4.18;1.23;;;8.90;99.90;;;;;;5029920;28;20139;-76
2022/03/30 10:45:01;;;;;;;6.20;1.60;;;9.00;99.90;;;;;;5036140;28;20083;-75
2022/03/30 10:47:29;;;;;;;5.65;1.50;;;9.10;99.90;;;;;;5040702;28;20056;-76
2022/03/30 10:50:00;;;;;;;3.88;1.30;;;9.10;99.90;;;;;;5041162;28;20041;-76
2022/03/30 10:52:34;;;;;;;5.70;1.70;;;9.10;99.90;;;;;;5037723;28;20069;-75
2022/03/30 10:55:15;;;;;;;4.60;1.48;;;9.20;99.90;;;;;;5041094;28;20047;-76
2022/03/30 10:57:43;;;;;;;4.70;1.30;;;9.20;99.90;;;;;;5037951;28;20056;-75
2022/03/30 11:00:20;;;;;;;3.38;1.20;;;9.20;99.90;;;;;;5039741;28;20504;-75
2022/03/30 11:02:46;;;;;;;4.72;1.00;;;9.20;99.90;;;;;;5039676;28;20041;-76
2022/03/30 11:05:15;;;;;;;4.03;1.10;;;9.30;99.90;;;;;;5040843;28;20044;-76
2022/03/30 11:07:42;;;;;;;4.05;1.30;;;9.30;99.90;;;;;;5039348;28;20544;-76
2022/03/30 11:10:45;;;;;;;4.00;1.08;;;9.40;99.90;;;;;;5039555;28;20327;-75
2022/03/30 11:13:11;;;;;;;5.15;1.50;;;9.40;99.90;;;;;;5011961;28;20139;-75
2022/03/30 11:15:59;;;;;;;6.13;1.30;;;9.40;99.90;;;;;;5039625;28;20052;-76
2022/03/30 11:18:27;;;;;;;2.53;1.00;;;9.30;99.90;;;;;;5034976;28;20671;-74
2022/03/30 11:21:08;;;;;;;4.28;1.17;;;9.20;99.90;;;;;;5039959;28;20385;-75
2022/03/30 11:23:35;;;;;;;3.60;1.10;;;9.10;99.90;;;;;;5038832;28;20063;-75
2022/03/30 11:26:01;;;;;;;4.00;1.10;;;9.10;99.90;;;;;;5038326;28;20721;-75
2022/03/30 11:28:37;;;;;;;4.25;1.40;;;9.30;99.90;;;;;;5038998;28;20045;-74
2022/03/30 11:31:17;;;;;;;5.43;1.25;;;8.90;99.90;;;;;;5037664;28;20049;-75
2022/03/30 11:33:43;;;;;;;5.55;1.00;;;8.90;99.90;;;;;;5047234;28;20055;-74
2022/03/30 11:36:09;;;;;;;5.15;1.35;;;8.80;99.90;;;;;;5027982;28;20080;-75
2022/03/30 11:38:39;;;;;;;5.35;1.20;;;8.80;99.90;;;;;;5040332;28;20067;-74
2022/03/30 11:41:06;;;;;;;4.97;1.30;;;8.80;99.90;;;;;;5034292;28;20045;-75
2022/03/30 11:46:30;;;;;;;3.25;0.80;;;8.80;99.90;;;;;;5038640;28;20118;-74
2022/03/30 11:49:05;;;;;;;4.18;0.73;;;8.80;99.90;;;;;;5035686;28;20124;-75
2022/03/30 11:51:32;;;;;;;3.70;0.82;;;8.90;99.90;;;;;;5042865;28;20055;-74
2022/03/30 11:54:19;;;;;;;2.95;0.95;;;9.00;99.90;;;;;;5038614;28;20064;-74
2022/03/30 11:56:45;;;;;;;5.88;1.02;;;9.10;99.90;;;;;;5038557;28;20056;-74
2022/03/30 11:59:11;;;;;;;6.85;0.98;;;9.30;99.90;;;;;;5037784;28;20033;-75
2022/03/30 12:01:37;;;;;;;3.90;0.82;;;9.40;99.90;;;;;;5039505;28;20164;-74
2022/03/30 12:04:04;;;;;;;2.65;0.88;;;9.50;99.90;;;;;;5041657;28;20063;-75
2022/03/30 12:06:30;;;;;;;3.97;0.80;;;9.70;99.90;;;;;;5035546;28;20090;-75
2022/03/30 12:08:58;;;;;;;3.03;0.75;;;9.70;99.90;;;;;;5032948;28;20111;-75
2022/03/30 12:11:25;;;;;;;6.00;1.05;;;9.70;99.90;;;;;;5020822;28;20053;-76
2022/03/30 12:13:55;;;;;;;5.10;0.73;;;9.60;99.90;;;;;;5033992;28;20110;-76
2022/03/30 12:16:22;;;;;;;3.53;0.60;;;9.60;99.90;;;;;;5031447;28;20060;-74
2022/03/30 12:18:55;;;;;;;5.65;0.60;;;9.50;99.90;;;;;;5029055;28;20194;-74
2022/03/30 12:21:23;;;;;;;3.30;0.60;;;9.40;99.90;;;;;;5028839;28;20045;-75
2022/03/30 12:24:04;;;;;;;4.18;0.45;;;9.40;99.90;;;;;;5026855;28;20598;-74
2022/03/30 12:26:31;;;;;;;3.55;0.93;;;9.50;99.90;;;;;;5026776;28;20055;-74
2022/03/30 12:29:14;;;;;;;3.38;0.60;;;9.60;99.90;;;;;;5031028;28;20053;-74
2022/03/30 12:31:45;;;;;;;3.38;0.65;;;9.70;99.90;;;;;;5039698;28;20138;-74
2022/03/30 12:34:13;;;;;;;5.68;0.73;;;9.90;99.90;;;;;;5021266;28;20508;-74
2022/03/30 12:36:45;;;;;;;7.38;1.00;;;10.00;98.90;;;;;;5026735;28;20053;-74
2022/03/30 12:39:22;;;;;;;2.78;0.60;;;10.10;99.60;;;;;;5036474;28;20065;-75
2022/03/30 12:42:05;;;;;;;4.65;0.85;;;10.40;98.70;;;;;;5019038;28;20053;-74
2022/03/30 12:44:48;;;;;;;3.38;0.60;;;10.40;98.00;;;;;;5037098;28;20061;-75
2022/03/30 12:47:16;;;;;;;3.25;0.70;;;10.60;98.90;;;;;;5041367;28;20040;-74
2022/03/30 12:49:43;;;;;;;4.57;1.13;;;10.80;97.20;;;;;;5041445;28;20728;-74
2022/03/30 12:52:14;;;;;;;4.53;0.98;;;10.90;97.30;;;;;;5029318;28;20413;-73
2022/03/30 12:54:42;;;;;;;3.33;0.77;;;11.10;97.30;;;;;;5022913;28;20864;-74
2022/03/30 12:57:08;;;;;;;4.38;0.60;;;11.20;95.70;;;;;;5039340;28;20045;-74
2022/03/30 12:59:34;;;;;;;3.83;0.98;;;11.20;96.50;;;;;;5036059;28;20056;-74
2022/03/30 13:02:23;;;;;;;67.10;29.50;;;11.10;96.90;;;;;;5039318;28;20222;-74
2022/03/30 13:04:51;;;;;;;7.25;1.48;;;11.00;96.00;;;;;;5031124;28;20182;-74
2022/03/30 13:07:21;;;;;;;3.97;0.50;;;11.00;96.20;;;;;;5034042;28;20045;-74